sensor_id;sensor_type;location;lat;lon;timestamp;temperature;humidity
78896;HTU21D;68284;59.124;37.910;2023-09-30T00:01:01;15.90;85.41
78896;HTU21D;68284;59.124;37.910;2023-09-30T00:03:28;15.88;85.45
78896;HTU21D;68284;59.124;37.910;2023-09-30T00:05:58;15.86;85.44
78896;HTU21D;68284;59.124;37.910;2023-09-30T00:08:26;15.84;85.51
78896;HTU21D;68284;59.124;37.910;2023-09-30T00:10:55;15.82;85.51
78896;HTU21D;68284;59.124;37.910;2023-09-30T00:13:22;15.80;85.51
78896;HTU21D;68284;59.124;37.910;2023-09-30T00:15:50;15.75;85.56
78896;HTU21D;68284;59.124;37.910;2023-09-30T00:18:17;15.73;85.61
78896;HTU21D;68284;59.124;37.910;2023-09-30T00:20:45;15.72;85.70
78896;HTU21D;68284;59.124;37.910;2023-09-30T00:23:12;15.68;85.71
78896;HTU21D;68284;59.124;37.910;2023-09-30T00:25:39;15.67;85.76
78896;HTU21D;68284;59.124;37.910;2023-09-30T00:28:05;15.65;85.83
78896;HTU21D;68284;59.124;37.910;2023-09-30T00:30:31;15.60;85.90
78896;HTU21D;68284;59.124;37.910;2023-09-30T00:32:59;15.59;85.98
78896;HTU21D;68284;59.124;37.910;2023-09-30T00:35:26;15.57;86.00
78896;HTU21D;68284;59.124;37.910;2023-09-30T00:37:52;15.56;86.04
78896;HTU21D;68284;59.124;37.910;2023-09-30T00:40:19;15.56;86.07
78896;HTU21D;68284;59.124;37.910;2023-09-30T00:42:45;15.54;86.11
78896;HTU21D;68284;59.124;37.910;2023-09-30T00:45:13;15.53;86.04
78896;HTU21D;68284;59.124;37.910;2023-09-30T00:47:41;15.52;86.09
78896;HTU21D;68284;59.124;37.910;2023-09-30T00:50:07;15.51;86.14
78896;HTU21D;68284;59.124;37.910;2023-09-30T00:52:36;15.51;86.12
78896;HTU21D;68284;59.124;37.910;2023-09-30T00:55:05;15.54;86.11
78896;HTU21D;68284;59.124;37.910;2023-09-30T00:57:36;15.53;86.09
78896;HTU21D;68284;59.124;37.910;2023-09-30T01:00:04;15.52;86.10
78896;HTU21D;68284;59.124;37.910;2023-09-30T01:02:32;15.53;86.12
78896;HTU21D;68284;59.124;37.910;2023-09-30T01:05:03;15.52;86.11
78896;HTU21D;68284;59.124;37.910;2023-09-30T01:07:37;15.51;86.09
78896;HTU21D;68284;59.124;37.910;2023-09-30T01:10:04;15.51;86.15
78896;HTU21D;68284;59.124;37.910;2023-09-30T01:12:31;15.51;86.16
78896;HTU21D;68284;59.124;37.910;2023-09-30T01:14:58;15.51;86.16
78896;HTU21D;68284;59.124;37.910;2023-09-30T01:17:31;15.51;86.15
78896;HTU21D;68284;59.124;37.910;2023-09-30T01:19:58;15.49;86.16
78896;HTU21D;68284;59.124;37.910;2023-09-30T01:22:26;15.47;86.14
78896;HTU21D;68284;59.124;37.910;2023-09-30T01:24:56;15.49;86.19
78896;HTU21D;68284;59.124;37.910;2023-09-30T01:27:27;15.47;86.22
78896;HTU21D;68284;59.124;37.910;2023-09-30T01:29:55;15.46;86.22
78896;HTU21D;68284;59.124;37.910;2023-09-30T01:32:24;15.46;86.21
78896;HTU21D;68284;59.124;37.910;2023-09-30T01:34:51;15.43;86.22
78896;HTU21D;68284;59.124;37.910;2023-09-30T01:37:18;15.43;86.29
78896;HTU21D;68284;59.124;37.910;2023-09-30T01:39:47;15.41;86.36
78896;HTU21D;68284;59.124;37.910;2023-09-30T01:42:18;15.40;86.40
78896;HTU21D;68284;59.124;37.910;2023-09-30T01:44:47;15.41;86.42
78896;HTU21D;68284;59.124;37.910;2023-09-30T01:47:15;15.41;86.41
78896;HTU21D;68284;59.124;37.910;2023-09-30T01:49:43;15.42;86.38
78896;HTU21D;68284;59.124;37.910;2023-09-30T01:52:12;15.43;86.36
78896;HTU21D;68284;59.124;37.910;2023-09-30T01:54:41;15.43;86.32
78896;HTU21D;68284;59.124;37.910;2023-09-30T01:57:29;15.44;86.31
78896;HTU21D;68284;59.124;37.910;2023-09-30T01:59:59;15.44;86.29
78896;HTU21D;68284;59.124;37.910;2023-09-30T02:02:26;15.45;86.28
78896;HTU21D;68284;59.124;37.910;2023-09-30T02:04:56;15.45;86.28
78896;HTU21D;68284;59.124;37.910;2023-09-30T02:07:28;15.45;86.27
78896;HTU21D;68284;59.124;37.910;2023-09-30T02:10:00;15.47;86.26
78896;HTU21D;68284;59.124;37.910;2023-09-30T02:12:28;15.48;86.23
78896;HTU21D;68284;59.124;37.910;2023-09-30T02:14:55;15.49;86.19
78896;HTU21D;68284;59.124;37.910;2023-09-30T02:17:24;15.49;86.16
78896;HTU21D;68284;59.124;37.910;2023-09-30T02:19:53;15.51;86.11
78896;HTU21D;68284;59.124;37.910;2023-09-30T02:22:20;15.53;86.06
78896;HTU21D;68284;59.124;37.910;2023-09-30T02:24:48;15.55;86.01
78896;HTU21D;68284;59.124;37.910;2023-09-30T02:27:15;15.55;85.94
78896;HTU21D;68284;59.124;37.910;2023-09-30T02:29:41;15.56;85.89
78896;HTU21D;68284;59.124;37.910;2023-09-30T02:32:07;15.55;85.87
78896;HTU21D;68284;59.124;37.910;2023-09-30T02:34:35;15.55;85.79
78896;HTU21D;68284;59.124;37.910;2023-09-30T02:37:02;15.56;85.78
78896;HTU21D;68284;59.124;37.910;2023-09-30T02:39:31;15.54;85.74
78896;HTU21D;68284;59.124;37.910;2023-09-30T02:41:59;15.53;85.75
78896;HTU21D;68284;59.124;37.910;2023-09-30T02:44:26;15.47;85.80
78896;HTU21D;68284;59.124;37.910;2023-09-30T02:46:53;15.46;85.87
78896;HTU21D;68284;59.124;37.910;2023-09-30T02:49:21;15.44;85.89
78896;HTU21D;68284;59.124;37.910;2023-09-30T02:51:47;15.43;85.93
78896;HTU21D;68284;59.124;37.910;2023-09-30T02:54:14;15.40;85.95
78896;HTU21D;68284;59.124;37.910;2023-09-30T02:56:44;15.37;85.94
78896;HTU21D;68284;59.124;37.910;2023-09-30T02:59:18;15.36;86.00
78896;HTU21D;68284;59.124;37.910;2023-09-30T03:01:49;15.33;86.06
78896;HTU21D;68284;59.124;37.910;2023-09-30T03:04:19;15.33;86.09
78896;HTU21D;68284;59.124;37.910;2023-09-30T03:06:46;15.33;86.16
78896;HTU21D;68284;59.124;37.910;2023-09-30T03:09:15;15.36;86.28
78896;HTU21D;68284;59.124;37.910;2023-09-30T03:11:46;15.37;86.28
78896;HTU21D;68284;59.124;37.910;2023-09-30T03:14:15;15.39;86.21
78896;HTU21D;68284;59.124;37.910;2023-09-30T03:16:42;15.39;86.19
78896;HTU21D;68284;59.124;37.910;2023-09-30T03:19:11;15.38;86.15
78896;HTU21D;68284;59.124;37.910;2023-09-30T03:21:42;15.39;86.16
78896;HTU21D;68284;59.124;37.910;2023-09-30T03:24:11;15.37;86.21
78896;HTU21D;68284;59.124;37.910;2023-09-30T03:26:38;15.37;86.22
78896;HTU21D;68284;59.124;37.910;2023-09-30T03:29:08;15.36;86.25
78896;HTU21D;68284;59.124;37.910;2023-09-30T03:31:42;15.34;86.23
78896;HTU21D;68284;59.124;37.910;2023-09-30T03:34:08;15.32;86.25
78896;HTU21D;68284;59.124;37.910;2023-09-30T03:36:36;15.33;86.33
78896;HTU21D;68284;59.124;37.910;2023-09-30T03:39:03;15.31;86.31
78896;HTU21D;68284;59.124;37.910;2023-09-30T03:41:48;15.32;86.25
78896;HTU21D;68284;59.124;37.910;2023-09-30T03:44:17;15.32;86.27
78896;HTU21D;68284;59.124;37.910;2023-09-30T03:46:51;15.31;86.22
78896;HTU21D;68284;59.124;37.910;2023-09-30T03:49:19;15.31;86.22
78896;HTU21D;68284;59.124;37.910;2023-09-30T03:51:48;15.31;86.22
78896;HTU21D;68284;59.124;37.910;2023-09-30T03:54:20;15.31;86.26
78896;HTU21D;68284;59.124;37.910;2023-09-30T03:56:47;15.29;86.26
78896;HTU21D;68284;59.124;37.910;2023-09-30T03:59:15;15.29;86.27
78896;HTU21D;68284;59.124;37.910;2023-09-30T04:01:48;15.28;86.31
78896;HTU21D;68284;59.124;37.910;2023-09-30T04:04:15;15.28;86.29
78896;HTU21D;68284;59.124;37.910;2023-09-30T04:06:41;15.28;86.36
78896;HTU21D;68284;59.124;37.910;2023-09-30T04:09:08;15.29;86.40
78896;HTU21D;68284;59.124;37.910;2023-09-30T04:11:38;15.29;86.38
78896;HTU21D;68284;59.124;37.910;2023-09-30T04:14:12;15.33;86.29
78896;HTU21D;68284;59.124;37.910;2023-09-30T04:16:39;15.36;86.22
78896;HTU21D;68284;59.124;37.910;2023-09-30T04:19:06;15.38;86.16
78896;HTU21D;68284;59.124;37.910;2023-09-30T04:21:37;15.40;86.13
78896;HTU21D;68284;59.124;37.910;2023-09-30T04:24:07;15.40;86.10
78896;HTU21D;68284;59.124;37.910;2023-09-30T04:26:40;15.42;86.12
78896;HTU21D;68284;59.124;37.910;2023-09-30T04:29:07;15.43;86.09
78896;HTU21D;68284;59.124;37.910;2023-09-30T04:31:37;15.45;86.09
78896;HTU21D;68284;59.124;37.910;2023-09-30T04:34:07;15.47;86.06
78896;HTU21D;68284;59.124;37.910;2023-09-30T04:36:37;15.49;86.00
78896;HTU21D;68284;59.124;37.910;2023-09-30T04:39:06;15.53;85.92
78896;HTU21D;68284;59.124;37.910;2023-09-30T04:41:38;15.55;85.85
78896;HTU21D;68284;59.124;37.910;2023-09-30T04:44:08;15.57;85.77
78896;HTU21D;68284;59.124;37.910;2023-09-30T04:46:37;15.59;85.72
78896;HTU21D;68284;59.124;37.910;2023-09-30T04:49:10;15.60;85.69
78896;HTU21D;68284;59.124;37.910;2023-09-30T04:51:40;15.61;85.66
78896;HTU21D;68284;59.124;37.910;2023-09-30T04:54:09;15.63;85.64
78896;HTU21D;68284;59.124;37.910;2023-09-30T04:56:37;15.63;85.63
78896;HTU21D;68284;59.124;37.910;2023-09-30T04:59:07;15.67;85.61
78896;HTU21D;68284;59.124;37.910;2023-09-30T05:01:34;15.68;85.58
78896;HTU21D;68284;59.124;37.910;2023-09-30T05:04:05;15.71;85.61
78896;HTU21D;68284;59.124;37.910;2023-09-30T05:06:33;15.72;85.61
78896;HTU21D;68284;59.124;37.910;2023-09-30T05:09:01;15.75;85.55
78896;HTU21D;68284;59.124;37.910;2023-09-30T05:11:33;15.82;85.49
78896;HTU21D;68284;59.124;37.910;2023-09-30T05:14:11;15.86;85.30
78896;HTU21D;68284;59.124;37.910;2023-09-30T05:16:39;15.89;85.18
78896;HTU21D;68284;59.124;37.910;2023-09-30T05:19:12;15.91;85.09
78896;HTU21D;68284;59.124;37.910;2023-09-30T05:21:40;15.93;85.00
78896;HTU21D;68284;59.124;37.910;2023-09-30T05:24:11;15.95;84.88
78896;HTU21D;68284;59.124;37.910;2023-09-30T05:26:41;15.96;84.83
78896;HTU21D;68284;59.124;37.910;2023-09-30T05:29:14;15.97;84.82
78896;HTU21D;68284;59.124;37.910;2023-09-30T05:31:40;15.99;84.80
78896;HTU21D;68284;59.124;37.910;2023-09-30T05:34:09;16.01;84.74
78896;HTU21D;68284;59.124;37.910;2023-09-30T05:36:37;16.02;84.71
78896;HTU21D;68284;59.124;37.910;2023-09-30T05:39:05;16.04;84.61
78896;HTU21D;68284;59.124;37.910;2023-09-30T05:41:40;16.08;84.52
78896;HTU21D;68284;59.124;37.910;2023-09-30T05:44:10;16.10;84.46
78896;HTU21D;68284;59.124;37.910;2023-09-30T05:46:37;16.13;84.43
78896;HTU21D;68284;59.124;37.910;2023-09-30T05:49:06;16.17;84.40
78896;HTU21D;68284;59.124;37.910;2023-09-30T05:51:41;16.20;84.35
78896;HTU21D;68284;59.124;37.910;2023-09-30T05:54:25;16.28;84.28
78896;HTU21D;68284;59.124;37.910;2023-09-30T05:56:51;16.33;84.12
78896;HTU21D;68284;59.124;37.910;2023-09-30T05:59:17;16.40;83.97
78896;HTU21D;68284;59.124;37.910;2023-09-30T06:01:51;16.43;83.83
78896;HTU21D;68284;59.124;37.910;2023-09-30T06:04:22;16.45;83.78
78896;HTU21D;68284;59.124;37.910;2023-09-30T06:06:49;16.50;83.76
78896;HTU21D;68284;59.124;37.910;2023-09-30T06:09:17;16.56;83.74
78896;HTU21D;68284;59.124;37.910;2023-09-30T06:11:46;16.62;83.57
78896;HTU21D;68284;59.124;37.910;2023-09-30T06:14:15;16.66;83.36
78896;HTU21D;68284;59.124;37.910;2023-09-30T06:16:41;16.70;83.29
78896;HTU21D;68284;59.124;37.910;2023-09-30T06:19:07;16.73;83.09
78896;HTU21D;68284;59.124;37.910;2023-09-30T06:21:35;16.79;82.99
78896;HTU21D;68284;59.124;37.910;2023-09-30T06:24:01;16.84;82.83
78896;HTU21D;68284;59.124;37.910;2023-09-30T06:26:28;16.89;82.66
78896;HTU21D;68284;59.124;37.910;2023-09-30T06:28:57;16.95;82.51
78896;HTU21D;68284;59.124;37.910;2023-09-30T06:31:24;17.02;82.26
78896;HTU21D;68284;59.124;37.910;2023-09-30T06:33:55;17.07;82.03
78896;HTU21D;68284;59.124;37.910;2023-09-30T06:36:25;17.08;81.69
78896;HTU21D;68284;59.124;37.910;2023-09-30T06:38:57;17.09;81.72
78896;HTU21D;68284;59.124;37.910;2023-09-30T06:41:29;17.11;81.73
78896;HTU21D;68284;59.124;37.910;2023-09-30T06:44:08;17.18;81.70
78896;HTU21D;68284;59.124;37.910;2023-09-30T06:46:34;17.31;81.59
78896;HTU21D;68284;59.124;37.910;2023-09-30T06:49:05;17.37;81.25
78896;HTU21D;68284;59.124;37.910;2023-09-30T06:51:33;17.48;81.08
78896;HTU21D;68284;59.124;37.910;2023-09-30T06:54:05;17.56;80.81
78896;HTU21D;68284;59.124;37.910;2023-09-30T06:56:33;17.64;80.60
78896;HTU21D;68284;59.124;37.910;2023-09-30T06:58:59;17.74;80.46
78896;HTU21D;68284;59.124;37.910;2023-09-30T07:01:33;17.81;80.24
78896;HTU21D;68284;59.124;37.910;2023-09-30T07:04:01;17.87;80.04
78896;HTU21D;68284;59.124;37.910;2023-09-30T07:06:36;17.94;79.72
78896;HTU21D;68284;59.124;37.910;2023-09-30T07:09:11;18.02;79.64
78896;HTU21D;68284;59.124;37.910;2023-09-30T07:11:41;18.12;79.43
78896;HTU21D;68284;59.124;37.910;2023-09-30T07:14:15;18.20;79.08
78896;HTU21D;68284;59.124;37.910;2023-09-30T07:16:47;18.25;78.97
78896;HTU21D;68284;59.124;37.910;2023-09-30T07:19:16;18.35;78.63
78896;HTU21D;68284;59.124;37.910;2023-09-30T07:21:51;18.42;78.18
78896;HTU21D;68284;59.124;37.910;2023-09-30T07:24:23;18.38;78.17
78896;HTU21D;68284;59.124;37.910;2023-09-30T07:27:02;18.42;78.14
78896;HTU21D;68284;59.124;37.910;2023-09-30T07:29:31;18.46;77.98
78896;HTU21D;68284;59.124;37.910;2023-09-30T07:32:03;18.49;77.66
78896;HTU21D;68284;59.124;37.910;2023-09-30T07:34:33;18.52;77.56
78896;HTU21D;68284;59.124;37.910;2023-09-30T07:37:00;18.55;77.42
78896;HTU21D;68284;59.124;37.910;2023-09-30T07:39:30;18.58;77.24
78896;HTU21D;68284;59.124;37.910;2023-09-30T07:42:11;18.62;77.22
78896;HTU21D;68284;59.124;37.910;2023-09-30T07:44:38;18.66;76.95
78896;HTU21D;68284;59.124;37.910;2023-09-30T07:47:06;18.67;76.55
78896;HTU21D;68284;59.124;37.910;2023-09-30T07:49:37;18.64;76.53
78896;HTU21D;68284;59.124;37.910;2023-09-30T07:52:16;18.61;76.50
78896;HTU21D;68284;59.124;37.910;2023-09-30T07:54:44;18.64;76.50
78896;HTU21D;68284;59.124;37.910;2023-09-30T07:57:13;18.69;76.31
78896;HTU21D;68284;59.124;37.910;2023-09-30T07:59:49;18.77;76.24
78896;HTU21D;68284;59.124;37.910;2023-09-30T08:02:21;18.88;76.05
78896;HTU21D;68284;59.124;37.910;2023-09-30T08:04:50;19.01;75.79
78896;HTU21D;68284;59.124;37.910;2023-09-30T08:07:21;19.12;75.22
78896;HTU21D;68284;59.124;37.910;2023-09-30T08:09:52;19.17;75.12
78896;HTU21D;68284;59.124;37.910;2023-09-30T08:12:33;19.25;75.05
78896;HTU21D;68284;59.124;37.910;2023-09-30T08:15:01;19.31;74.71
78896;HTU21D;68284;59.124;37.910;2023-09-30T08:17:34;19.31;74.54
78896;HTU21D;68284;59.124;37.910;2023-09-30T08:20:02;19.30;74.51
78896;HTU21D;68284;59.124;37.910;2023-09-30T08:22:35;19.31;74.51
78896;HTU21D;68284;59.124;37.910;2023-09-30T08:25:02;19.30;74.44
78896;HTU21D;68284;59.124;37.910;2023-09-30T08:27:30;19.27;74.45
78896;HTU21D;68284;59.124;37.910;2023-09-30T08:30:00;19.28;74.62
78896;HTU21D;68284;59.124;37.910;2023-09-30T08:32:35;19.29;74.56
78896;HTU21D;68284;59.124;37.910;2023-09-30T08:35:06;19.30;74.44
78896;HTU21D;68284;59.124;37.910;2023-09-30T08:37:36;19.27;74.47
78896;HTU21D;68284;59.124;37.910;2023-09-30T08:40:12;19.21;74.53
78896;HTU21D;68284;59.124;37.910;2023-09-30T08:42:42;19.13;74.73
78896;HTU21D;68284;59.124;37.910;2023-09-30T08:45:12;19.13;74.79
78896;HTU21D;68284;59.124;37.910;2023-09-30T08:47:51;19.13;74.88
78896;HTU21D;68284;59.124;37.910;2023-09-30T08:50:21;19.17;74.90
78896;HTU21D;68284;59.124;37.910;2023-09-30T08:52:50;19.23;74.76
78896;HTU21D;68284;59.124;37.910;2023-09-30T08:55:20;19.24;74.72
78896;HTU21D;68284;59.124;37.910;2023-09-30T08:57:54;19.29;74.71
78896;HTU21D;68284;59.124;37.910;2023-09-30T09:00:22;19.35;74.53
78896;HTU21D;68284;59.124;37.910;2023-09-30T09:02:53;19.42;74.38
78896;HTU21D;68284;59.124;37.910;2023-09-30T09:05:38;19.50;74.04
78896;HTU21D;68284;59.124;37.910;2023-09-30T09:08:10;19.53;74.09
78896;HTU21D;68284;59.124;37.910;2023-09-30T09:11:05;19.60;73.87
78896;HTU21D;68284;59.124;37.910;2023-09-30T09:13:51;19.68;73.84
78896;HTU21D;68284;59.124;37.910;2023-09-30T09:16:24;19.75;73.76
78896;HTU21D;68284;59.124;37.910;2023-09-30T09:18:55;19.86;73.54
78896;HTU21D;68284;59.124;37.910;2023-09-30T09:21:26;20.00;73.24
78896;HTU21D;68284;59.124;37.910;2023-09-30T09:24:02;20.10;73.02
78896;HTU21D;68284;59.124;37.910;2023-09-30T09:26:34;20.18;72.70
78896;HTU21D;68284;59.124;37.910;2023-09-30T09:29:09;20.18;72.48
78896;HTU21D;68284;59.124;37.910;2023-09-30T09:31:37;20.22;72.39
78896;HTU21D;68284;59.124;37.910;2023-09-30T09:34:14;20.28;72.18
78896;HTU21D;68284;59.124;37.910;2023-09-30T09:36:45;20.31;72.13
78896;HTU21D;68284;59.124;37.910;2023-09-30T09:39:32;20.39;72.03
78896;HTU21D;68284;59.124;37.910;2023-09-30T09:42:04;20.48;71.87
78896;HTU21D;68284;59.124;37.910;2023-09-30T09:44:36;20.56;71.67
78896;HTU21D;68284;59.124;37.910;2023-09-30T09:47:06;20.65;71.48
78896;HTU21D;68284;59.124;37.910;2023-09-30T09:49:35;20.75;71.22
78896;HTU21D;68284;59.124;37.910;2023-09-30T09:52:04;20.88;70.96
78896;HTU21D;68284;59.124;37.910;2023-09-30T09:54:34;21.04;70.68
78896;HTU21D;68284;59.124;37.910;2023-09-30T09:57:10;21.24;70.33
78896;HTU21D;68284;59.124;37.910;2023-09-30T09:59:43;21.45;69.79
78896;HTU21D;68284;59.124;37.910;2023-09-30T10:02:15;21.63;69.33
78896;HTU21D;68284;59.124;37.910;2023-09-30T10:04:47;21.78;68.79
78896;HTU21D;68284;59.124;37.910;2023-09-30T10:07:22;21.87;68.41
78896;HTU21D;68284;59.124;37.910;2023-09-30T10:10:01;21.98;68.20
78896;HTU21D;68284;59.124;37.910;2023-09-30T10:12:45;22.10;67.80
78896;HTU21D;68284;59.124;37.910;2023-09-30T10:18:06;22.27;67.17
78896;HTU21D;68284;59.124;37.910;2023-09-30T10:20:45;22.29;67.08
78896;HTU21D;68284;59.124;37.910;2023-09-30T10:23:23;22.32;66.69
78896;HTU21D;68284;59.124;37.910;2023-09-30T10:26:15;22.27;66.39
78896;HTU21D;68284;59.124;37.910;2023-09-30T10:28:48;22.21;66.65
78896;HTU21D;68284;59.124;37.910;2023-09-30T10:31:22;22.17;66.46
78896;HTU21D;68284;59.124;37.910;2023-09-30T10:36:39;22.09;66.48
78896;HTU21D;68284;59.124;37.910;2023-09-30T10:39:13;22.03;66.46
78896;HTU21D;68284;59.124;37.910;2023-09-30T10:41:53;21.99;66.36
78896;HTU21D;68284;59.124;37.910;2023-09-30T10:44:32;21.96;66.40
78896;HTU21D;68284;59.124;37.910;2023-09-30T10:50:00;21.97;66.50
78896;HTU21D;68284;59.124;37.910;2023-09-30T10:52:29;22.03;66.58
78896;HTU21D;68284;59.124;37.910;2023-09-30T10:55:06;22.11;66.42
78896;HTU21D;68284;59.124;37.910;2023-09-30T10:57:37;22.23;66.24
78896;HTU21D;68284;59.124;37.910;2023-09-30T11:00:10;22.40;65.88
78896;HTU21D;68284;59.124;37.910;2023-09-30T11:02:50;22.79;65.24
78896;HTU21D;68284;59.124;37.910;2023-09-30T11:05:19;23.28;64.30
78896;HTU21D;68284;59.124;37.910;2023-09-30T11:07:57;23.74;63.10
78896;HTU21D;68284;59.124;37.910;2023-09-30T11:10:26;24.10;62.32
78896;HTU21D;68284;59.124;37.910;2023-09-30T11:12:56;24.49;61.28
78896;HTU21D;68284;59.124;37.910;2023-09-30T11:15:32;24.99;60.29
78896;HTU21D;68284;59.124;37.910;2023-09-30T11:18:25;25.49;59.31
78896;HTU21D;68284;59.124;37.910;2023-09-30T11:21:05;25.96;57.84
78896;HTU21D;68284;59.124;37.910;2023-09-30T11:23:32;26.24;56.87
78896;HTU21D;68284;59.124;37.910;2023-09-30T11:26:02;26.40;56.04
78896;HTU21D;68284;59.124;37.910;2023-09-30T11:28:41;26.52;55.40
78896;HTU21D;68284;59.124;37.910;2023-09-30T11:31:12;26.53;54.84
78896;HTU21D;68284;59.124;37.910;2023-09-30T11:33:54;26.55;54.56
78896;HTU21D;68284;59.124;37.910;2023-09-30T11:36:38;26.60;54.39
78896;HTU21D;68284;59.124;37.910;2023-09-30T11:39:24;26.61;54.32
78896;HTU21D;68284;59.124;37.910;2023-09-30T11:41:57;26.69;53.62
78896;HTU21D;68284;59.124;37.910;2023-09-30T11:44:25;26.67;53.28
78896;HTU21D;68284;59.124;37.910;2023-09-30T11:46:55;26.53;53.10
78896;HTU21D;68284;59.124;37.910;2023-09-30T11:49:39;26.34;53.09
78896;HTU21D;68284;59.124;37.910;2023-09-30T11:52:27;26.30;52.94
78896;HTU21D;68284;59.124;37.910;2023-09-30T11:55:09;26.20;52.85
78896;HTU21D;68284;59.124;37.910;2023-09-30T11:57:40;26.06;53.07
78896;HTU21D;68284;59.124;37.910;2023-09-30T12:00:16;25.96;53.22
78896;HTU21D;68284;59.124;37.910;2023-09-30T12:02:50;25.95;53.34
78896;HTU21D;68284;59.124;37.910;2023-09-30T12:05:21;25.87;53.42
78896;HTU21D;68284;59.124;37.910;2023-09-30T12:07:53;25.63;53.69
78896;HTU21D;68284;59.124;37.910;2023-09-30T12:10:23;25.46;53.88
78896;HTU21D;68284;59.124;37.910;2023-09-30T12:12:58;25.32;53.88
78896;HTU21D;68284;59.124;37.910;2023-09-30T12:15:27;25.12;54.10
78896;HTU21D;68284;59.124;37.910;2023-09-30T12:18:15;24.90;54.61
78896;HTU21D;68284;59.124;37.910;2023-09-30T12:21:20;24.73;55.07
78896;HTU21D;68284;59.124;37.910;2023-09-30T12:23:52;24.60;55.44
78896;HTU21D;68284;59.124;37.910;2023-09-30T12:26:22;24.55;55.48
78896;HTU21D;68284;59.124;37.910;2023-09-30T12:28:52;24.49;55.71
78896;HTU21D;68284;59.124;37.910;2023-09-30T12:31:22;24.48;55.88
78896;HTU21D;68284;59.124;37.910;2023-09-30T12:33:50;24.40;56.05
78896;HTU21D;68284;59.124;37.910;2023-09-30T12:36:21;24.32;56.32
78896;HTU21D;68284;59.124;37.910;2023-09-30T12:39:11;24.25;56.53
78896;HTU21D;68284;59.124;37.910;2023-09-30T12:41:48;24.11;56.77
78896;HTU21D;68284;59.124;37.910;2023-09-30T12:44:17;23.95;56.99
78896;HTU21D;68284;59.124;37.910;2023-09-30T12:46:47;23.79;57.24
78896;HTU21D;68284;59.124;37.910;2023-09-30T12:49:15;23.62;57.53
78896;HTU21D;68284;59.124;37.910;2023-09-30T12:51:53;23.50;57.93
78896;HTU21D;68284;59.124;37.910;2023-09-30T12:54:21;23.38;58.24
78896;HTU21D;68284;59.124;37.910;2023-09-30T12:57:05;23.24;58.64
78896;HTU21D;68284;59.124;37.910;2023-09-30T12:59:35;23.14;58.98
78896;HTU21D;68284;59.124;37.910;2023-09-30T13:02:18;23.00;59.41
78896;HTU21D;68284;59.124;37.910;2023-09-30T13:05:39;22.83;59.98
78896;HTU21D;68284;59.124;37.910;2023-09-30T13:08:55;22.68;60.28
78896;HTU21D;68284;59.124;37.910;2023-09-30T13:11:23;22.54;60.57
78896;HTU21D;68284;59.124;37.910;2023-09-30T13:13:52;22.47;60.84
78896;HTU21D;68284;59.124;37.910;2023-09-30T13:16:44;22.37;61.05
78896;HTU21D;68284;59.124;37.910;2023-09-30T13:19:39;22.31;61.34
78896;HTU21D;68284;59.124;37.910;2023-09-30T13:22:08;22.23;61.50
78896;HTU21D;68284;59.124;37.910;2023-09-30T13:24:36;22.19;61.79
78896;HTU21D;68284;59.124;37.910;2023-09-30T13:27:06;22.17;62.02
78896;HTU21D;68284;59.124;37.910;2023-09-30T13:29:35;22.12;62.23
78896;HTU21D;68284;59.124;37.910;2023-09-30T13:32:04;22.06;62.44
78896;HTU21D;68284;59.124;37.910;2023-09-30T13:34:34;21.98;62.70
78896;HTU21D;68284;59.124;37.910;2023-09-30T13:37:01;21.87;62.99
78896;HTU21D;68284;59.124;37.910;2023-09-30T13:39:32;21.74;63.36
78896;HTU21D;68284;59.124;37.910;2023-09-30T13:42:03;21.62;63.70
78896;HTU21D;68284;59.124;37.910;2023-09-30T13:44:29;21.51;64.07
78896;HTU21D;68284;59.124;37.910;2023-09-30T13:46:58;21.42;64.42
78896;HTU21D;68284;59.124;37.910;2023-09-30T13:49:29;21.31;64.74
78896;HTU21D;68284;59.124;37.910;2023-09-30T13:52:15;21.20;65.14
78896;HTU21D;68284;59.124;37.910;2023-09-30T13:57:53;21.04;65.40
78896;HTU21D;68284;59.124;37.910;2023-09-30T14:00:23;20.99;65.78
78896;HTU21D;68284;59.124;37.910;2023-09-30T14:03:15;20.93;66.19
78896;HTU21D;68284;59.124;37.910;2023-09-30T14:05:51;20.85;66.26
78896;HTU21D;68284;59.124;37.910;2023-09-30T14:08:42;20.79;66.46
78896;HTU21D;68284;59.124;37.910;2023-09-30T14:11:12;20.75;66.75
78896;HTU21D;68284;59.124;37.910;2023-09-30T14:14:06;20.70;66.88
78896;HTU21D;68284;59.124;37.910;2023-09-30T14:17:15;20.64;67.35
78896;HTU21D;68284;59.124;37.910;2023-09-30T14:20:08;20.59;67.30
78896;HTU21D;68284;59.124;37.910;2023-09-30T14:22:48;20.54;67.59
78896;HTU21D;68284;59.124;37.910;2023-09-30T14:25:23;20.48;67.64
78896;HTU21D;68284;59.124;37.910;2023-09-30T14:27:51;20.46;67.83
78896;HTU21D;68284;59.124;37.910;2023-09-30T14:30:25;20.42;68.07
78896;HTU21D;68284;59.124;37.910;2023-09-30T14:32:58;20.35;68.23
78896;HTU21D;68284;59.124;37.910;2023-09-30T14:35:34;20.32;68.50
78896;HTU21D;68284;59.124;37.910;2023-09-30T14:38:03;20.27;68.60
78896;HTU21D;68284;59.124;37.910;2023-09-30T14:40:47;20.21;68.74
78896;HTU21D;68284;59.124;37.910;2023-09-30T14:43:14;20.17;68.87
78896;HTU21D;68284;59.124;37.910;2023-09-30T14:46:06;20.13;69.06
78896;HTU21D;68284;59.124;37.910;2023-09-30T14:48:34;20.09;69.06
78896;HTU21D;68284;59.124;37.910;2023-09-30T14:51:10;20.06;69.16
78896;HTU21D;68284;59.124;37.910;2023-09-30T14:53:44;20.02;69.21
78896;HTU21D;68284;59.124;37.910;2023-09-30T14:56:32;19.98;69.28
78896;HTU21D;68284;59.124;37.910;2023-09-30T14:59:28;19.96;69.29
78896;HTU21D;68284;59.124;37.910;2023-09-30T15:02:29;19.92;69.41
78896;HTU21D;68284;59.124;37.910;2023-09-30T15:05:08;19.88;69.36
78896;HTU21D;68284;59.124;37.910;2023-09-30T15:07:48;19.85;69.39
78896;HTU21D;68284;59.124;37.910;2023-09-30T15:10:19;19.81;69.47
78896;HTU21D;68284;59.124;37.910;2023-09-30T15:12:47;19.81;69.51
78896;HTU21D;68284;59.124;37.910;2023-09-30T15:15:14;19.79;69.58
78896;HTU21D;68284;59.124;37.910;2023-09-30T15:17:43;19.77;69.58
78896;HTU21D;68284;59.124;37.910;2023-09-30T15:20:18;19.76;69.63
78896;HTU21D;68284;59.124;37.910;2023-09-30T15:22:53;19.75;69.63
78896;HTU21D;68284;59.124;37.910;2023-09-30T15:25:27;19.75;69.65
78896;HTU21D;68284;59.124;37.910;2023-09-30T15:28:34;19.75;69.74
78896;HTU21D;68284;59.124;37.910;2023-09-30T15:31:15;19.74;69.65
78896;HTU21D;68284;59.124;37.910;2023-09-30T15:33:42;19.73;69.67
78896;HTU21D;68284;59.124;37.910;2023-09-30T15:36:15;19.72;69.74
78896;HTU21D;68284;59.124;37.910;2023-09-30T15:38:47;19.71;69.78
78896;HTU21D;68284;59.124;37.910;2023-09-30T15:41:14;19.69;69.84
78896;HTU21D;68284;59.124;37.910;2023-09-30T15:43:42;19.66;69.90
78896;HTU21D;68284;59.124;37.910;2023-09-30T15:46:12;19.66;70.00